sensor_id;sensor_type;location;lat;lon;timestamp;temperature;humidity
3986;DHT22;2007;48.750;9.278;2022-11-11T00:01:11;15.70;57.40
3986;DHT22;2007;48.750;9.278;2022-11-11T00:03:39;15.80;57.50
3986;DHT22;2007;48.750;9.278;2022-11-11T00:06:09;15.80;57.50
3986;DHT22;2007;48.750;9.278;2022-11-11T00:08:37;15.80;57.50
3986;DHT22;2007;48.750;9.278;2022-11-11T00:11:07;15.70;57.40
3986;DHT22;2007;48.750;9.278;2022-11-11T00:13:38;15.80;57.50
3986;DHT22;2007;48.750;9.278;2022-11-11T00:16:08;15.70;57.40
3986;DHT22;2007;48.750;9.278;2022-11-11T00:18:37;15.70;57.40
3986;DHT22;2007;48.750;9.278;2022-11-11T00:21:23;15.70;57.40
3986;DHT22;2007;48.750;9.278;2022-11-11T00:24:20;15.70;57.40
3986;DHT22;2007;48.750;9.278;2022-11-11T00:27:06;15.70;57.40
3986;DHT22;2007;48.750;9.278;2022-11-11T00:29:36;15.70;57.40
3986;DHT22;2007;48.750;9.278;2022-11-11T00:32:04;15.80;57.50
3986;DHT22;2007;48.750;9.278;2022-11-11T00:34:54;15.70;57.40
3986;DHT22;2007;48.750;9.278;2022-11-11T00:37:44;15.70;57.40
3986;DHT22;2007;48.750;9.278;2022-11-11T00:40:14;15.70;57.40
3986;DHT22;2007;48.750;9.278;2022-11-11T00:42:43;15.70;57.40
3986;DHT22;2007;48.750;9.278;2022-11-11T00:45:12;15.70;57.40
3986;DHT22;2007;48.750;9.278;2022-11-11T00:47:40;15.70;57.40
3986;DHT22;2007;48.750;9.278;2022-11-11T00:50:27;15.70;57.40
3986;DHT22;2007;48.750;9.278;2022-11-11T00:53:14;15.70;57.40
3986;DHT22;2007;48.750;9.278;2022-11-11T00:55:49;15.70;57.40
3986;DHT22;2007;48.750;9.278;2022-11-11T00:58:16;15.70;57.40
3986;DHT22;2007;48.750;9.278;2022-11-11T01:00:46;15.70;57.40
3986;DHT22;2007;48.750;9.278;2022-11-11T01:03:15;15.70;57.40
3986;DHT22;2007;48.750;9.278;2022-11-11T01:05:43;15.70;57.40
3986;DHT22;2007;48.750;9.278;2022-11-11T01:08:12;15.70;57.30
3986;DHT22;2007;48.750;9.278;2022-11-11T01:10:40;15.70;57.40
3986;DHT22;2007;48.750;9.278;2022-11-11T01:13:16;15.70;57.40
3986;DHT22;2007;48.750;9.278;2022-11-11T01:15:49;15.70;57.40
3986;DHT22;2007;48.750;9.278;2022-11-11T01:18:23;15.70;57.40
3986;DHT22;2007;48.750;9.278;2022-11-11T01:20:59;15.70;57.40
3986;DHT22;2007;48.750;9.278;2022-11-11T01:23:28;15.70;57.30
3986;DHT22;2007;48.750;9.278;2022-11-11T01:26:00;15.70;57.30
3986;DHT22;2007;48.750;9.278;2022-11-11T01:28:29;15.70;57.40
3986;DHT22;2007;48.750;9.278;2022-11-11T01:31:02;15.70;57.30
3986;DHT22;2007;48.750;9.278;2022-11-11T01:33:30;15.70;57.40
3986;DHT22;2007;48.750;9.278;2022-11-11T01:36:04;15.70;57.30
3986;DHT22;2007;48.750;9.278;2022-11-11T01:38:32;15.70;57.40
3986;DHT22;2007;48.750;9.278;2022-11-11T01:41:00;15.70;57.40
3986;DHT22;2007;48.750;9.278;2022-11-11T01:43:48;15.70;57.40
3986;DHT22;2007;48.750;9.278;2022-11-11T01:46:26;15.70;57.30
3986;DHT22;2007;48.750;9.278;2022-11-11T01:48:57;15.70;57.40
3986;DHT22;2007;48.750;9.278;2022-11-11T01:51:47;15.70;57.40
3986;DHT22;2007;48.750;9.278;2022-11-11T01:54:22;15.70;57.30
3986;DHT22;2007;48.750;9.278;2022-11-11T01:56:55;15.60;57.20
3986;DHT22;2007;48.750;9.278;2022-11-11T01:59:25;15.70;57.40
3986;DHT22;2007;48.750;9.278;2022-11-11T02:01:56;15.70;57.40
3986;DHT22;2007;48.750;9.278;2022-11-11T02:04:24;15.70;57.30
3986;DHT22;2007;48.750;9.278;2022-11-11T02:07:10;15.70;57.30
3986;DHT22;2007;48.750;9.278;2022-11-11T02:09:42;15.70;57.40
3986;DHT22;2007;48.750;9.278;2022-11-11T02:12:11;15.60;57.30
3986;DHT22;2007;48.750;9.278;2022-11-11T02:14:59;15.60;57.30
3986;DHT22;2007;48.750;9.278;2022-11-11T02:17:30;15.60;57.30
3986;DHT22;2007;48.750;9.278;2022-11-11T02:20:00;15.60;57.30
3986;DHT22;2007;48.750;9.278;2022-11-11T02:22:35;15.60;57.30
3986;DHT22;2007;48.750;9.278;2022-11-11T02:25:07;15.60;57.20
3986;DHT22;2007;48.750;9.278;2022-11-11T02:27:38;15.70;57.40
3986;DHT22;2007;48.750;9.278;2022-11-11T02:30:08;15.60;57.20
3986;DHT22;2007;48.750;9.278;2022-11-11T02:32:42;15.60;57.20
3986;DHT22;2007;48.750;9.278;2022-11-11T02:35:13;15.60;57.30
3986;DHT22;2007;48.750;9.278;2022-11-11T02:37:43;15.70;57.40
3986;DHT22;2007;48.750;9.278;2022-11-11T02:40:16;15.60;57.30
3986;DHT22;2007;48.750;9.278;2022-11-11T02:42:45;15.60;57.20
3986;DHT22;2007;48.750;9.278;2022-11-11T02:45:12;15.60;57.30
3986;DHT22;2007;48.750;9.278;2022-11-11T02:47:40;15.60;57.20
3986;DHT22;2007;48.750;9.278;2022-11-11T02:50:08;15.60;57.30
3986;DHT22;2007;48.750;9.278;2022-11-11T02:52:36;15.60;57.20
3986;DHT22;2007;48.750;9.278;2022-11-11T02:55:04;15.60;57.30
3986;DHT22;2007;48.750;9.278;2022-11-11T02:57:35;15.60;57.20
3986;DHT22;2007;48.750;9.278;2022-11-11T03:00:04;15.60;57.30
3986;DHT22;2007;48.750;9.278;2022-11-11T03:02:32;15.60;57.30
3986;DHT22;2007;48.750;9.278;2022-11-11T03:05:00;15.60;57.20
3986;DHT22;2007;48.750;9.278;2022-11-11T03:07:28;15.60;57.30
3986;DHT22;2007;48.750;9.278;2022-11-11T03:09:56;15.60;57.20
3986;DHT22;2007;48.750;9.278;2022-11-11T03:12:24;15.60;57.20
3986;DHT22;2007;48.750;9.278;2022-11-11T03:14:54;15.60;57.30
3986;DHT22;2007;48.750;9.278;2022-11-11T03:17:22;15.60;57.20
3986;DHT22;2007;48.750;9.278;2022-11-11T03:20:09;15.60;57.20
3986;DHT22;2007;48.750;9.278;2022-11-11T03:23:02;15.60;57.20
3986;DHT22;2007;48.750;9.278;2022-11-11T03:25:30;15.60;57.30
3986;DHT22;2007;48.750;9.278;2022-11-11T03:28:04;15.60;57.20
3986;DHT22;2007;48.750;9.278;2022-11-11T03:30:33;15.60;57.20
3986;DHT22;2007;48.750;9.278;2022-11-11T03:33:02;15.60;57.20
3986;DHT22;2007;48.750;9.278;2022-11-11T03:35:31;15.60;57.20
3986;DHT22;2007;48.750;9.278;2022-11-11T03:37:59;15.60;57.20
3986;DHT22;2007;48.750;9.278;2022-11-11T03:40:41;15.60;57.20
3986;DHT22;2007;48.750;9.278;2022-11-11T03:43:09;15.60;57.20
3986;DHT22;2007;48.750;9.278;2022-11-11T03:45:39;15.60;57.20
3986;DHT22;2007;48.750;9.278;2022-11-11T03:48:07;15.60;57.20
3986;DHT22;2007;48.750;9.278;2022-11-11T03:50:35;15.60;57.30
3986;DHT22;2007;48.750;9.278;2022-11-11T03:53:03;15.60;57.20
3986;DHT22;2007;48.750;9.278;2022-11-11T03:55:31;15.60;57.20
3986;DHT22;2007;48.750;9.278;2022-11-11T03:57:59;15.60;57.20
3986;DHT22;2007;48.750;9.278;2022-11-11T04:00:28;15.60;57.20
3986;DHT22;2007;48.750;9.278;2022-11-11T04:03:05;15.60;57.20
3986;DHT22;2007;48.750;9.278;2022-11-11T04:05:51;15.60;57.20
3986;DHT22;2007;48.750;9.278;2022-11-11T04:08:42;15.60;57.20
3986;DHT22;2007;48.750;9.278;2022-11-11T04:11:29;15.60;57.20
3986;DHT22;2007;48.750;9.278;2022-11-11T04:14:02;15.60;57.90
3986;DHT22;2007;48.750;9.278;2022-11-11T04:16:47;15.50;57.20
3986;DHT22;2007;48.750;9.278;2022-11-11T04:19:17;15.60;57.20
3986;DHT22;2007;48.750;9.278;2022-11-11T04:22:02;15.60;57.20
3986;DHT22;2007;48.750;9.278;2022-11-11T04:24:30;15.60;57.20
3986;DHT22;2007;48.750;9.278;2022-11-11T04:27:17;15.50;57.20
3986;DHT22;2007;48.750;9.278;2022-11-11T04:29:45;15.50;57.80
3986;DHT22;2007;48.750;9.278;2022-11-11T04:32:15;15.50;57.20
3986;DHT22;2007;48.750;9.278;2022-11-11T04:35:03;15.60;57.30
3986;DHT22;2007;48.750;9.278;2022-11-11T04:37:34;15.50;57.20
3986;DHT22;2007;48.750;9.278;2022-11-11T04:40:03;15.50;57.20
3986;DHT22;2007;48.750;9.278;2022-11-11T04:42:49;15.50;57.20
3986;DHT22;2007;48.750;9.278;2022-11-11T04:45:19;15.50;57.20
3986;DHT22;2007;48.750;9.278;2022-11-11T04:47:58;15.50;57.20
3986;DHT22;2007;48.750;9.278;2022-11-11T04:50:29;15.50;57.20
3986;DHT22;2007;48.750;9.278;2022-11-11T04:52:58;15.50;57.20
3986;DHT22;2007;48.750;9.278;2022-11-11T04:55:25;15.50;57.20
3986;DHT22;2007;48.750;9.278;2022-11-11T04:58:12;15.50;57.20
3986;DHT22;2007;48.750;9.278;2022-11-11T05:00:40;15.50;57.20
3986;DHT22;2007;48.750;9.278;2022-11-11T05:03:09;15.50;57.20
3986;DHT22;2007;48.750;9.278;2022-11-11T05:05:46;15.50;57.20
3986;DHT22;2007;48.750;9.278;2022-11-11T05:08:33;15.50;57.20
3986;DHT22;2007;48.750;9.278;2022-11-11T05:11:20;15.50;57.20
3986;DHT22;2007;48.750;9.278;2022-11-11T05:13:48;15.50;57.20
3986;DHT22;2007;48.750;9.278;2022-11-11T05:16:37;15.50;57.20
3986;DHT22;2007;48.750;9.278;2022-11-11T05:19:23;15.50;57.20
3986;DHT22;2007;48.750;9.278;2022-11-11T05:22:13;15.50;57.20
3986;DHT22;2007;48.750;9.278;2022-11-11T05:24:43;15.50;57.20
3986;DHT22;2007;48.750;9.278;2022-11-11T05:27:28;15.50;57.20
3986;DHT22;2007;48.750;9.278;2022-11-11T05:29:56;15.50;57.20
3986;DHT22;2007;48.750;9.278;2022-11-11T05:32:24;15.50;57.20
3986;DHT22;2007;48.750;9.278;2022-11-11T05:34:53;15.50;57.20
3986;DHT22;2007;48.750;9.278;2022-11-11T05:37:22;15.50;57.20
3986;DHT22;2007;48.750;9.278;2022-11-11T05:39:50;15.40;57.10
3986;DHT22;2007;48.750;9.278;2022-11-11T05:42:18;15.50;57.20
3986;DHT22;2007;48.750;9.278;2022-11-11T05:44:46;15.50;57.20
3986;DHT22;2007;48.750;9.278;2022-11-11T05:47:14;15.40;57.10
3986;DHT22;2007;48.750;9.278;2022-11-11T05:49:42;15.50;57.20
3986;DHT22;2007;48.750;9.278;2022-11-11T05:52:11;15.40;57.10
3986;DHT22;2007;48.750;9.278;2022-11-11T05:54:40;15.40;57.10
3986;DHT22;2007;48.750;9.278;2022-11-11T05:57:08;15.50;57.20
3986;DHT22;2007;48.750;9.278;2022-11-11T05:59:36;15.40;57.10
3986;DHT22;2007;48.750;9.278;2022-11-11T06:02:04;15.40;57.10
3986;DHT22;2007;48.750;9.278;2022-11-11T06:04:32;15.40;57.10
3986;DHT22;2007;48.750;9.278;2022-11-11T06:07:01;15.40;57.70
3986;DHT22;2007;48.750;9.278;2022-11-11T06:09:29;15.40;57.10
3986;DHT22;2007;48.750;9.278;2022-11-11T06:11:58;15.40;57.10
3986;DHT22;2007;48.750;9.278;2022-11-11T06:14:26;15.40;57.70
3986;DHT22;2007;48.750;9.278;2022-11-11T06:16:53;15.50;57.20
3986;DHT22;2007;48.750;9.278;2022-11-11T06:19:21;15.40;57.10
3986;DHT22;2007;48.750;9.278;2022-11-11T06:21:49;15.40;57.10
3986;DHT22;2007;48.750;9.278;2022-11-11T06:24:23;15.40;57.10
3986;DHT22;2007;48.750;9.278;2022-11-11T06:26:53;15.40;57.10
3986;DHT22;2007;48.750;9.278;2022-11-11T06:29:22;15.40;57.10
3986;DHT22;2007;48.750;9.278;2022-11-11T06:31:50;15.40;57.10
3986;DHT22;2007;48.750;9.278;2022-11-11T06:34:18;15.40;57.10
3986;DHT22;2007;48.750;9.278;2022-11-11T06:36:46;15.40;57.10
3986;DHT22;2007;48.750;9.278;2022-11-11T06:39:13;15.40;57.10
3986;DHT22;2007;48.750;9.278;2022-11-11T06:41:41;15.40;57.10
3986;DHT22;2007;48.750;9.278;2022-11-11T06:44:09;15.40;57.10
3986;DHT22;2007;48.750;9.278;2022-11-11T06:46:38;15.40;57.10
3986;DHT22;2007;48.750;9.278;2022-11-11T06:49:06;15.40;57.10
3986;DHT22;2007;48.750;9.278;2022-11-11T06:51:34;15.40;57.10
3986;DHT22;2007;48.750;9.278;2022-11-11T06:54:02;15.40;57.10
3986;DHT22;2007;48.750;9.278;2022-11-11T06:56:30;15.40;57.10
3986;DHT22;2007;48.750;9.278;2022-11-11T06:58:58;15.40;57.10
3986;DHT22;2007;48.750;9.278;2022-11-11T07:01:26;15.40;57.10
3986;DHT22;2007;48.750;9.278;2022-11-11T07:03:55;15.40;57.10
3986;DHT22;2007;48.750;9.278;2022-11-11T07:06:23;15.40;57.10
3986;DHT22;2007;48.750;9.278;2022-11-11T07:08:51;15.40;57.10
3986;DHT22;2007;48.750;9.278;2022-11-11T07:11:19;15.40;57.10
3986;DHT22;2007;48.750;9.278;2022-11-11T07:13:47;15.40;57.10
3986;DHT22;2007;48.750;9.278;2022-11-11T07:16:15;15.40;57.10
3986;DHT22;2007;48.750;9.278;2022-11-11T07:18:42;15.40;57.10
3986;DHT22;2007;48.750;9.278;2022-11-11T07:21:12;15.40;57.10
3986;DHT22;2007;48.750;9.278;2022-11-11T07:23:39;15.30;57.00
3986;DHT22;2007;48.750;9.278;2022-11-11T07:26:07;15.30;57.00
3986;DHT22;2007;48.750;9.278;2022-11-11T07:28:35;15.30;57.00
3986;DHT22;2007;48.750;9.278;2022-11-11T07:31:03;15.40;57.10
3986;DHT22;2007;48.750;9.278;2022-11-11T07:33:31;15.30;57.00
3986;DHT22;2007;48.750;9.278;2022-11-11T07:35:59;15.40;57.10
3986;DHT22;2007;48.750;9.278;2022-11-11T07:38:28;15.30;57.00
3986;DHT22;2007;48.750;9.278;2022-11-11T07:40:56;15.30;57.00
3986;DHT22;2007;48.750;9.278;2022-11-11T07:43:24;15.30;57.00
3986;DHT22;2007;48.750;9.278;2022-11-11T07:45:52;15.30;57.00
3986;DHT22;2007;48.750;9.278;2022-11-11T07:48:20;15.30;57.00
3986;DHT22;2007;48.750;9.278;2022-11-11T07:50:50;15.30;57.00
3986;DHT22;2007;48.750;9.278;2022-11-11T07:53:18;15.30;57.00
3986;DHT22;2007;48.750;9.278;2022-11-11T07:55:48;15.30;57.00
3986;DHT22;2007;48.750;9.278;2022-11-11T07:58:16;15.30;57.00
3986;DHT22;2007;48.750;9.278;2022-11-11T08:00:44;15.30;57.00
3986;DHT22;2007;48.750;9.278;2022-11-11T08:03:11;15.30;57.00
3986;DHT22;2007;48.750;9.278;2022-11-11T08:05:39;15.30;57.00
3986;DHT22;2007;48.750;9.278;2022-11-11T08:08:08;15.30;57.00
3986;DHT22;2007;48.750;9.278;2022-11-11T08:10:36;15.30;57.00
3986;DHT22;2007;48.750;9.278;2022-11-11T08:13:07;15.30;57.00
3986;DHT22;2007;48.750;9.278;2022-11-11T08:15:54;15.30;57.00
3986;DHT22;2007;48.750;9.278;2022-11-11T08:18:22;15.30;57.00
3986;DHT22;2007;48.750;9.278;2022-11-11T08:20:50;15.30;57.00
3986;DHT22;2007;48.750;9.278;2022-11-11T08:23:21;15.30;57.00
3986;DHT22;2007;48.750;9.278;2022-11-11T08:26:18;15.30;57.00
3986;DHT22;2007;48.750;9.278;2022-11-11T08:28:56;15.30;57.00
3986;DHT22;2007;48.750;9.278;2022-11-11T08:31:24;15.30;57.00
3986;DHT22;2007;48.750;9.278;2022-11-11T08:33:52;15.30;57.00
3986;DHT22;2007;48.750;9.278;2022-11-11T08:36:21;15.30;57.00
3986;DHT22;2007;48.750;9.278;2022-11-11T08:38:51;15.20;57.00
3986;DHT22;2007;48.750;9.278;2022-11-11T08:41:19;15.30;57.10
3986;DHT22;2007;48.750;9.278;2022-11-11T08:43:51;15.30;57.00
3986;DHT22;2007;48.750;9.278;2022-11-11T08:46:20;15.30;57.00
3986;DHT22;2007;48.750;9.278;2022-11-11T08:48:49;15.30;57.10
3986;DHT22;2007;48.750;9.278;2022-11-11T08:51:17;15.30;57.00
3986;DHT22;2007;48.750;9.278;2022-11-11T08:53:45;15.20;57.00
3986;DHT22;2007;48.750;9.278;2022-11-11T08:56:13;15.30;57.10
3986;DHT22;2007;48.750;9.278;2022-11-11T08:58:41;15.30;57.10
3986;DHT22;2007;48.750;9.278;2022-11-11T09:01:12;15.20;56.90
3986;DHT22;2007;48.750;9.278;2022-11-11T09:03:42;15.30;57.10
3986;DHT22;2007;48.750;9.278;2022-11-11T09:06:11;15.20;57.00
3986;DHT22;2007;48.750;9.278;2022-11-11T09:08:41;15.30;57.10
3986;DHT22;2007;48.750;9.278;2022-11-11T09:11:09;15.20;57.00
3986;DHT22;2007;48.750;9.278;2022-11-11T09:13:37;15.30;57.10
3986;DHT22;2007;48.750;9.278;2022-11-11T09:16:06;15.30;57.10
3986;DHT22;2007;48.750;9.278;2022-11-11T09:18:35;15.20;57.00
3986;DHT22;2007;48.750;9.278;2022-11-11T09:21:04;15.20;57.00
3986;DHT22;2007;48.750;9.278;2022-11-11T09:23:32;15.30;57.10
3986;DHT22;2007;48.750;9.278;2022-11-11T09:26:00;15.20;57.60
3986;DHT22;2007;48.750;9.278;2022-11-11T09:28:30;15.20;57.00
3986;DHT22;2007;48.750;9.278;2022-11-11T09:30:59;15.20;57.00
3986;DHT22;2007;48.750;9.278;2022-11-11T09:33:47;15.20;57.00
3986;DHT22;2007;48.750;9.278;2022-11-11T09:36:17;15.20;57.00
3986;DHT22;2007;48.750;9.278;2022-11-11T09:38:45;15.20;57.60
3986;DHT22;2007;48.750;9.278;2022-11-11T09:41:19;15.20;57.00
3986;DHT22;2007;48.750;9.278;2022-11-11T09:43:53;15.20;57.00
3986;DHT22;2007;48.750;9.278;2022-11-11T09:46:32;15.20;57.00
3986;DHT22;2007;48.750;9.278;2022-11-11T09:49:22;15.20;57.00
3986;DHT22;2007;48.750;9.278;2022-11-11T09:52:00;15.20;57.00
3986;DHT22;2007;48.750;9.278;2022-11-11T09:54:34;15.20;57.00
3986;DHT22;2007;48.750;9.278;2022-11-11T09:57:11;15.20;57.00
3986;DHT22;2007;48.750;9.278;2022-11-11T09:59:44;15.20;57.00
3986;DHT22;2007;48.750;9.278;2022-11-11T10:02:19;15.20;57.00
3986;DHT22;2007;48.750;9.278;2022-11-11T10:04:56;15.20;57.00
3986;DHT22;2007;48.750;9.278;2022-11-11T10:07:34;15.20;57.00
3986;DHT22;2007;48.750;9.278;2022-11-11T10:10:10;15.20;57.10
3986;DHT22;2007;48.750;9.278;2022-11-11T10:12:45;15.20;57.10
3986;DHT22;2007;48.750;9.278;2022-11-11T10:15:14;15.20;57.10
3986;DHT22;2007;48.750;9.278;2022-11-11T10:17:50;15.20;57.10
3986;DHT22;2007;48.750;9.278;2022-11-11T10:20:23;15.20;57.10
3986;DHT22;2007;48.750;9.278;2022-11-11T10:22:59;15.20;57.10
3986;DHT22;2007;48.750;9.278;2022-11-11T10:25:29;15.20;57.10
3986;DHT22;2007;48.750;9.278;2022-11-11T10:27:59;15.20;57.10
3986;DHT22;2007;48.750;9.278;2022-11-11T10:30:28;15.20;57.10
3986;DHT22;2007;48.750;9.278;2022-11-11T10:33:00;15.20;57.10
3986;DHT22;2007;48.750;9.278;2022-11-11T10:35:30;15.20;57.10
3986;DHT22;2007;48.750;9.278;2022-11-11T10:38:12;15.20;57.10
3986;DHT22;2007;48.750;9.278;2022-11-11T10:40:45;15.20;57.10
3986;DHT22;2007;48.750;9.278;2022-11-11T10:43:21;15.20;57.10
3986;DHT22;2007;48.750;9.278;2022-11-11T10:45:57;15.20;57.10
3986;DHT22;2007;48.750;9.278;2022-11-11T10:48:35;15.20;57.10
3986;DHT22;2007;48.750;9.278;2022-11-11T10:51:10;15.20;57.10
3986;DHT22;2007;48.750;9.278;2022-11-11T10:53:44;15.20;57.10
3986;DHT22;2007;48.750;9.278;2022-11-11T10:56:18;15.20;57.10
3986;DHT22;2007;48.750;9.278;2022-11-11T10:58:52;15.20;57.20
3986;DHT22;2007;48.750;9.278;2022-11-11T11:01:27;15.20;57.20
3986;DHT22;2007;48.750;9.278;2022-11-11T11:04:00;15.20;57.10
3986;DHT22;2007;48.750;9.278;2022-11-11T11:06:33;15.20;57.10
3986;DHT22;2007;48.750;9.278;2022-11-11T11:09:11;15.10;57.00
3986;DHT22;2007;48.750;9.278;2022-11-11T11:11:45;15.10;57.00
3986;DHT22;2007;48.750;9.278;2022-11-11T11:14:19;15.10;57.10
3986;DHT22;2007;48.750;9.278;2022-11-11T11:16:50;15.10;57.10
3986;DHT22;2007;48.750;9.278;2022-11-11T11:19:22;15.10;57.10
3986;DHT22;2007;48.750;9.278;2022-11-11T11:21:52;15.20;57.20
3986;DHT22;2007;48.750;9.278;2022-11-11T11:24:24;15.20;57.20
3986;DHT22;2007;48.750;9.278;2022-11-11T11:26:53;15.20;57.20
3986;DHT22;2007;48.750;9.278;2022-11-11T11:29:27;15.20;57.20
3986;DHT22;2007;48.750;9.278;2022-11-11T11:31:55;15.10;57.10
3986;DHT22;2007;48.750;9.278;2022-11-11T11:34:46;15.20;57.20
3986;DHT22;2007;48.750;9.278;2022-11-11T11:37:14;15.20;57.20
3986;DHT22;2007;48.750;9.278;2022-11-11T11:39:44;15.10;57.10
3986;DHT22;2007;48.750;9.278;2022-11-11T11:42:31;15.20;57.20
3986;DHT22;2007;48.750;9.278;2022-11-11T11:45:21;15.20;57.20
3986;DHT22;2007;48.750;9.278;2022-11-11T11:48:11;15.20;57.20
3986;DHT22;2007;48.750;9.278;2022-11-11T11:51:08;15.20;57.20
3986;DHT22;2007;48.750;9.278;2022-11-11T11:53:46;15.20;57.30
3986;DHT22;2007;48.750;9.278;2022-11-11T11:56:29;15.20;57.20
3986;DHT22;2007;48.750;9.278;2022-11-11T11:59:03;15.10;57.10
3986;DHT22;2007;48.750;9.278;2022-11-11T12:01:36;15.20;57.20
3986;DHT22;2007;48.750;9.278;2022-11-11T12:07:31;15.20;57.20
3986;DHT22;2007;48.750;9.278;2022-11-11T12:10:13;15.20;57.30
3986;DHT22;2007;48.750;9.278;2022-11-11T12:12:50;15.10;57.20
3986;DHT22;2007;48.750;9.278;2022-11-11T12:15:32;15.10;57.20
3986;DHT22;2007;48.750;9.278;2022-11-11T12:18:15;15.20;57.30
3986;DHT22;2007;48.750;9.278;2022-11-11T12:20:49;15.10;57.20
3986;DHT22;2007;48.750;9.278;2022-11-11T12:23:49;15.20;57.30
3986;DHT22;2007;48.750;9.278;2022-11-11T12:26:21;15.10;57.20
3986;DHT22;2007;48.750;9.278;2022-11-11T12:29:03;15.10;57.20
3986;DHT22;2007;48.750;9.278;2022-11-11T12:31:43;15.20;57.30
3986;DHT22;2007;48.750;9.278;2022-11-11T12:34:23;15.10;57.20
3986;DHT22;2007;48.750;9.278;2022-11-11T12:37:04;15.10;57.20
3986;DHT22;2007;48.750;9.278;2022-11-11T12:39:49;15.10;57.20
3986;DHT22;2007;48.750;9.278;2022-11-11T12:42:29;15.10;57.20
3986;DHT22;2007;48.750;9.278;2022-11-11T12:45:06;15.10;57.20
3986;DHT22;2007;48.750;9.278;2022-11-11T12:47:42;15.10;57.20
3986;DHT22;2007;48.750;9.278;2022-11-11T12:50:18;15.10;57.20
3986;DHT22;2007;48.750;9.278;2022-11-11T12:53:00;15.10;57.20
3986;DHT22;2007;48.750;9.278;2022-11-11T12:55:33;15.20;57.30
3986;DHT22;2007;48.750;9.278;2022-11-11T12:58:10;15.10;57.20
3986;DHT22;2007;48.750;9.278;2022-11-11T13:00:53;15.10;57.20
3986;DHT22;2007;48.750;9.278;2022-11-11T13:03:34;15.10;57.20
3986;DHT22;2007;48.750;9.278;2022-11-11T13:06:17;15.10;57.20
3986;DHT22;2007;48.750;9.278;2022-11-11T13:08:57;15.10;57.20
3986;DHT22;2007;48.750;9.278;2022-11-11T13:11:34;15.10;57.20
3986;DHT22;2007;48.750;9.278;2022-11-11T13:14:18;15.10;57.20
3986;DHT22;2007;48.750;9.278;2022-11-11T13:16:51;15.10;57.20
3986;DHT22;2007;48.750;9.278;2022-11-11T13:19:27;15.10;57.90
3986;DHT22;2007;48.750;9.278;2022-11-11T13:22:01;15.10;57.20
3986;DHT22;2007;48.750;9.278;2022-11-11T13:24:34;15.10;57.20
3986;DHT22;2007;48.750;9.278;2022-11-11T13:27:04;15.10;57.30
3986;DHT22;2007;48.750;9.278;2022-11-11T13:32:43;15.10;57.20
3986;DHT22;2007;48.750;9.278;2022-11-11T13:35:20;15.10;57.30
3986;DHT22;2007;48.750;9.278;2022-11-11T13:37:49;15.10;57.20
3986;DHT22;2007;48.750;9.278;2022-11-11T13:40:31;15.10;57.20
3986;DHT22;2007;48.750;9.278;2022-11-11T13:43:01;15.10;57.30
3986;DHT22;2007;48.750;9.278;2022-11-11T13:45:35;15.10;57.30
3986;DHT22;2007;48.750;9.278;2022-11-11T13:48:05;15.20;57.40
3986;DHT22;2007;48.750;9.278;2022-11-11T13:50:41;15.10;57.30
3986;DHT22;2007;48.750;9.278;2022-11-11T13:53:15;15.10;57.30
3986;DHT22;2007;48.750;9.278;2022-11-11T13:55:53;15.10;57.30
3986;DHT22;2007;48.750;9.278;2022-11-11T13:58:30;15.10;57.30
3986;DHT22;2007;48.750;9.278;2022-11-11T14:01:00;15.10;57.30
3986;DHT22;2007;48.750;9.278;2022-11-11T14:03:58;15.10;57.30
3986;DHT22;2007;48.750;9.278;2022-11-11T14:06:53;15.10;57.30
3986;DHT22;2007;48.750;9.278;2022-11-11T14:12:37;15.10;57.30
3986;DHT22;2007;48.750;9.278;2022-11-11T14:15:31;15.10;57.30
3986;DHT22;2007;48.750;9.278;2022-11-11T14:18:00;15.10;57.30
3986;DHT22;2007;48.750;9.278;2022-11-11T14:20:40;15.10;57.30
3986;DHT22;2007;48.750;9.278;2022-11-11T14:23:23;15.10;57.30
3986;DHT22;2007;48.750;9.278;2022-11-11T14:26:24;15.10;57.30
3986;DHT22;2007;48.750;9.278;2022-11-11T14:28:56;15.10;57.30
3986;DHT22;2007;48.750;9.278;2022-11-11T14:35:00;15.10;57.30
3986;DHT22;2007;48.750;9.278;2022-11-11T14:40:32;15.10;57.30
3986;DHT22;2007;48.750;9.278;2022-11-11T14:43:32;15.10;57.30
3986;DHT22;2007;48.750;9.278;2022-11-11T14:46:03;15.10;57.40
3986;DHT22;2007;48.750;9.278;2022-11-11T14:49:01;15.10;57.30
3986;DHT22;2007;48.750;9.278;2022-11-11T14:51:52;15.10;57.30
3986;DHT22;2007;48.750;9.278;2022-11-11T14:54:33;15.10;57.30
3986;DHT22;2007;48.750;9.278;2022-11-11T14:57:06;15.10;57.30
3986;DHT22;2007;48.750;9.278;2022-11-11T14:59:35;15.10;57.30
3986;DHT22;2007;48.750;9.278;2022-11-11T15:02:17;15.10;57.30
3986;DHT22;2007;48.750;9.278;2022-11-11T15:04:48;15.10;57.30
3986;DHT22;2007;48.750;9.278;2022-11-11T15:07:27;15.10;57.30
3986;DHT22;2007;48.750;9.278;2022-11-11T15:10:17;15.10;57.40
3986;DHT22;2007;48.750;9.278;2022-11-11T15:13:04;15.10;57.30
3986;DHT22;2007;48.750;9.278;2022-11-11T15:15:40;15.10;57.30
3986;DHT22;2007;48.750;9.278;2022-11-11T15:18:28;15.10;57.40
3986;DHT22;2007;48.750;9.278;2022-11-11T15:21:05;15.10;57.30
3986;DHT22;2007;48.750;9.278;2022-11-11T15:23:37;15.10;57.40
3986;DHT22;2007;48.750;9.278;2022-11-11T15:26:15;15.10;57.40
3986;DHT22;2007;48.750;9.278;2022-11-11T15:29:05;15.10;57.40
3986;DHT22;2007;48.750;9.278;2022-11-11T15:31:43;15.10;57.40
3986;DHT22;2007;48.750;9.278;2022-11-11T15:34:24;15.10;57.40
3986;DHT22;2007;48.750;9.278;2022-11-11T15:36:57;15.10;57.40
3986;DHT22;2007;48.750;9.278;2022-11-11T15:39:33;15.10;57.40
3986;DHT22;2007;48.750;9.278;2022-11-11T15:42:10;15.10;57.40
3986;DHT22;2007;48.750;9.278;2022-11-11T15:44:39;15.10;57.40
3986;DHT22;2007;48.750;9.278;2022-11-11T15:47:12;15.10;57.40
3986;DHT22;2007;48.750;9.278;2022-11-11T15:49:42;15.10;57.40
3986;DHT22;2007;48.750;9.278;2022-11-11T15:52:24;15.10;57.40
3986;DHT22;2007;48.750;9.278;2022-11-11T15:54:53;15.10;57.40
3986;DHT22;2007;48.750;9.278;2022-11-11T15:57:24;15.10;57.40
3986;DHT22;2007;48.750;9.278;2022-11-11T15:59:52;15.10;57.40
3986;DHT22;2007;48.750;9.278;2022-11-11T16:02:22;15.10;58.00
3986;DHT22;2007;48.750;9.278;2022-11-11T16:04:56;15.10;57.40
3986;DHT22;2007;48.750;9.278;2022-11-11T16:07:26;15.10;57.40
3986;DHT22;2007;48.750;9.278;2022-11-11T16:09:58;15.10;57.40
3986;DHT22;2007;48.750;9.278;2022-11-11T16:12:31;15.10;57.40
3986;DHT22;2007;48.750;9.278;2022-11-11T16:15:07;15.10;57.40
3986;DHT22;2007;48.750;9.278;2022-11-11T16:17:38;15.10;57.40
3986;DHT22;2007;48.750;9.278;2022-11-11T16:20:12;15.10;57.40
3986;DHT22;2007;48.750;9.278;2022-11-11T16:22:43;15.10;57.40
3986;DHT22;2007;48.750;9.278;2022-11-11T16:25:13;15.10;57.40
3986;DHT22;2007;48.750;9.278;2022-11-11T16:27:45;15.10;57.40
3986;DHT22;2007;48.750;9.278;2022-11-11T16:30:17;15.10;57.40
3986;DHT22;2007;48.750;9.278;2022-11-11T16:32:45;15.10;57.40
3986;DHT22;2007;48.750;9.278;2022-11-11T16:35:25;15.10;57.40
3986;DHT22;2007;48.750;9.278;2022-11-11T16:37:54;15.10;57.40
3986;DHT22;2007;48.750;9.278;2022-11-11T16:40:35;15.10;57.40
3986;DHT22;2007;48.750;9.278;2022-11-11T16:43:18;15.10;57.40
3986;DHT22;2007;48.750;9.278;2022-11-11T16:45:51;15.10;57.40
3986;DHT22;2007;48.750;9.278;2022-11-11T16:48:45;15.10;57.40
3986;DHT22;2007;48.750;9.278;2022-11-11T16:51:19;15.10;57.50
3986;DHT22;2007;48.750;9.278;2022-11-11T16:53:52;15.10;57.40
3986;DHT22;2007;48.750;9.278;2022-11-11T16:56:24;15.10;57.40
3986;DHT22;2007;48.750;9.278;2022-11-11T16:59:02;15.10;57.40
3986;DHT22;2007;48.750;9.278;2022-11-11T17:01:40;15.10;57.40